Main page
METAR-TAF:

METAR-TAF

Airports :

Gaya Airport

Gaya, India

latitude: 24-44-40N, longitude: 84-57-04E, elevation: 116 m

Current weather observation

The report was made 1 hour and 38 minutes ago, at 18:00 UTC
Calm wind
Temperature 13°C
Humidity 94%
Pressure 1014 hPa
Visibility: 1300 m
mist

METAR: VEGY 011800Z 00000KT 1300 BR NSC 13/12 Q1014

Time: 01:08 (19:38 UTC)

Forecast

The report was made 5 hours and 38 minutes ago, at 14:00 UTC
Forecast valid from 01 at 15 UTC to 01 at 24 UTC
Wind kt from the North
Visibility: 1500 m
mist
Becoming
from 01 at 21 UTC to 01 at 23 UTC
Visibility: 1000 m
Shallow fog

TAF: VEGY 011400Z 0115/0124 00000KT 1500 BR NSC BECMG 0121/0123 1000 MIFG

Weather observations and forecasts of more than 4000 airports (METAR and TAF reports).

The available stations are represented by yellow and red dots on the map.

Hover mouse over dot to see the name of the station.

Then click to see weather observations and forecasts.

To change the map : click on the green buttons with a black cross to zoom in, on the green button with a dash to zoom out, or on the green arrows for adjacent maps.


METAR-TAF: